Soldotna, Alaska
Current Conditions -  °F | °C
As of 7:16 AM on Saturday 25 Oct 2014 (Local Time) from PASX Reporting Station
Clear Clear  
Wind Chill:   Ceiling: Unl
Heat Index: 16°   Visibility: 10mi
Dew Point: 16°   Wind: 5mph
Humidity: 100%   Direction: 70°ENE
Pressure: 29.91"   Gusts: NA
Location:  60.49°N, 151.06°W
Report Text: PASX 251516Z AUTO 07004KT 10SM CLR M09/M09 A2991 RMK AO1
Loading
Personal Weather Stations






























Interactive Weather Map
Tropical Storm Tracking
New forecast layout! Learn more

10-Day Weather Forecast

Advertisements
Track Severe Weather on mobile